Terminal Aerodrome Forecast
Issued by NWS

Home | Current Version | Previous Version | Text Only | Print | Product List | Glossary On
Versions: 1 2 3 4 5 6 7 8 9 10 11 12 13 14 15 16 17 18 19 20 21
000
FTUS43 KDLH 310539
TAFHYR
TAF
KHYR 310539Z 3106/0106 20007KT P6SM SKC
     FM310900 20006KT 2SM BR BKN003
     FM311400 19008KT P6SM FEW250
     FM311800 20012G19KT P6SM SCT250
     FM010300 19003KT 4SM BR SCT250=

USA.gov is the U.S. government's official web portal to all federal, state and local government web resources and services.